sensor_id;sensor_type;location;lat;lon;timestamp;P1;durP1;ratioP1;P2;durP2;ratioP2
42810;SDS011;28457;55.680;37.656;2022-07-29T00:02:32;1.40;;;1.20;;
42810;SDS011;28457;55.680;37.656;2022-07-29T00:05:00;2.45;;;1.10;;
42810;SDS011;28457;55.680;37.656;2022-07-29T00:07:29;1.42;;;1.05;;
42810;SDS011;28457;55.680;37.656;2022-07-29T00:09:58;1.95;;;1.10;;
42810;SDS011;28457;55.680;37.656;2022-07-29T00:12:26;2.63;;;1.40;;
42810;SDS011;28457;55.680;37.656;2022-07-29T00:14:55;1.80;;;1.10;;
42810;SDS011;28457;55.680;37.656;2022-07-29T00:17:24;1.95;;;1.20;;
42810;SDS011;28457;55.680;37.656;2022-07-29T00:19:54;2.80;;;1.20;;
42810;SDS011;28457;55.680;37.656;2022-07-29T00:22:23;4.10;;;1.15;;
42810;SDS011;28457;55.680;37.656;2022-07-29T00:24:51;3.88;;;1.50;;
42810;SDS011;28457;55.680;37.656;2022-07-29T00:27:20;1.25;;;0.98;;
42810;SDS011;28457;55.680;37.656;2022-07-29T00:29:48;3.80;;;1.23;;
42810;SDS011;28457;55.680;37.656;2022-07-29T00:32:17;2.00;;;1.10;;
42810;SDS011;28457;55.680;37.656;2022-07-29T00:34:45;1.75;;;1.10;;
42810;SDS011;28457;55.680;37.656;2022-07-29T00:37:33;1.50;;;0.93;;
42810;SDS011;28457;55.680;37.656;2022-07-29T00:40:01;2.40;;;1.40;;
42810;SDS011;28457;55.680;37.656;2022-07-29T00:42:30;3.80;;;1.63;;
42810;SDS011;28457;55.680;37.656;2022-07-29T00:44:58;2.35;;;1.50;;
42810;SDS011;28457;55.680;37.656;2022-07-29T00:47:28;2.38;;;1.40;;
42810;SDS011;28457;55.680;37.656;2022-07-29T00:49:57;3.60;;;1.60;;
42810;SDS011;28457;55.680;37.656;2022-07-29T00:52:26;4.63;;;1.70;;
42810;SDS011;28457;55.680;37.656;2022-07-29T00:54:56;3.78;;;1.77;;
42810;SDS011;28457;55.680;37.656;2022-07-29T00:57:32;2.42;;;1.17;;
42810;SDS011;28457;55.680;37.656;2022-07-29T01:00:01;2.25;;;1.35;;
42810;SDS011;28457;55.680;37.656;2022-07-29T01:02:29;2.53;;;1.48;;
42810;SDS011;28457;55.680;37.656;2022-07-29T01:04:59;2.78;;;1.63;;
42810;SDS011;28457;55.680;37.656;2022-07-29T01:07:29;4.50;;;1.45;;
42810;SDS011;28457;55.680;37.656;2022-07-29T01:10:02;1.50;;;1.10;;
42810;SDS011;28457;55.680;37.656;2022-07-29T01:12:33;2.03;;;1.20;;
42810;SDS011;28457;55.680;37.656;2022-07-29T01:15:04;2.08;;;1.20;;
42810;SDS011;28457;55.680;37.656;2022-07-29T01:17:36;2.50;;;1.42;;
42810;SDS011;28457;55.680;37.656;2022-07-29T01:20:21;4.05;;;1.80;;
42810;SDS011;28457;55.680;37.656;2022-07-29T01:26:12;2.85;;;1.48;;
42810;SDS011;28457;55.680;37.656;2022-07-29T01:29:03;3.08;;;1.45;;
42810;SDS011;28457;55.680;37.656;2022-07-29T01:31:39;2.45;;;1.10;;
42810;SDS011;28457;55.680;37.656;2022-07-29T01:34:31;2.67;;;1.55;;
42810;SDS011;28457;55.680;37.656;2022-07-29T01:37:11;3.50;;;1.20;;
42810;SDS011;28457;55.680;37.656;2022-07-29T01:39:48;1.95;;;1.15;;
42810;SDS011;28457;55.680;37.656;2022-07-29T01:42:20;3.13;;;1.17;;
42810;SDS011;28457;55.680;37.656;2022-07-29T01:44:57;2.58;;;1.10;;
42810;SDS011;28457;55.680;37.656;2022-07-29T01:47:31;2.45;;;1.10;;
42810;SDS011;28457;55.680;37.656;2022-07-29T01:50:06;3.03;;;1.50;;
42810;SDS011;28457;55.680;37.656;2022-07-29T01:52:39;2.00;;;1.25;;
42810;SDS011;28457;55.680;37.656;2022-07-29T01:55:12;2.55;;;1.48;;
42810;SDS011;28457;55.680;37.656;2022-07-29T01:57:43;2.10;;;1.40;;
42810;SDS011;28457;55.680;37.656;2022-07-29T02:00:15;5.00;;;1.48;;
42810;SDS011;28457;55.680;37.656;2022-07-29T02:02:45;3.17;;;1.40;;
42810;SDS011;28457;55.680;37.656;2022-07-29T02:05:16;2.38;;;1.30;;
42810;SDS011;28457;55.680;37.656;2022-07-29T02:07:47;2.85;;;1.20;;
42810;SDS011;28457;55.680;37.656;2022-07-29T02:10:18;4.35;;;1.60;;
42810;SDS011;28457;55.680;37.656;2022-07-29T02:12:51;2.70;;;1.48;;
42810;SDS011;28457;55.680;37.656;2022-07-29T02:15:24;2.30;;;1.27;;
42810;SDS011;28457;55.680;37.656;2022-07-29T02:17:56;2.85;;;1.55;;
42810;SDS011;28457;55.680;37.656;2022-07-29T02:20:28;2.65;;;1.30;;
42810;SDS011;28457;55.680;37.656;2022-07-29T02:22:58;2.15;;;1.42;;
42810;SDS011;28457;55.680;37.656;2022-07-29T02:25:28;2.90;;;1.40;;
42810;SDS011;28457;55.680;37.656;2022-07-29T02:28:03;3.47;;;1.30;;
42810;SDS011;28457;55.680;37.656;2022-07-29T02:30:36;2.35;;;1.50;;
42810;SDS011;28457;55.680;37.656;2022-07-29T02:33:08;3.10;;;1.45;;
42810;SDS011;28457;55.680;37.656;2022-07-29T02:35:40;3.45;;;1.40;;
42810;SDS011;28457;55.680;37.656;2022-07-29T02:38:12;4.32;;;1.60;;
42810;SDS011;28457;55.680;37.656;2022-07-29T02:41:01;4.75;;;1.88;;
42810;SDS011;28457;55.680;37.656;2022-07-29T02:43:34;2.55;;;1.70;;
42810;SDS011;28457;55.680;37.656;2022-07-29T02:46:05;1.92;;;1.30;;
42810;SDS011;28457;55.680;37.656;2022-07-29T02:48:56;3.17;;;1.77;;
42810;SDS011;28457;55.680;37.656;2022-07-29T02:51:32;2.83;;;1.60;;
42810;SDS011;28457;55.680;37.656;2022-07-29T02:54:11;2.55;;;1.40;;
42810;SDS011;28457;55.680;37.656;2022-07-29T02:56:48;2.08;;;1.30;;
42810;SDS011;28457;55.680;37.656;2022-07-29T02:59:23;3.28;;;1.40;;
42810;SDS011;28457;55.680;37.656;2022-07-29T03:01:56;3.92;;;1.40;;
42810;SDS011;28457;55.680;37.656;2022-07-29T03:04:27;3.92;;;1.77;;
42810;SDS011;28457;55.680;37.656;2022-07-29T03:06:59;2.83;;;1.25;;
42810;SDS011;28457;55.680;37.656;2022-07-29T03:09:29;2.55;;;1.58;;
42810;SDS011;28457;55.680;37.656;2022-07-29T03:11:58;4.55;;;1.40;;
42810;SDS011;28457;55.680;37.656;2022-07-29T03:14:28;2.75;;;1.30;;
42810;SDS011;28457;55.680;37.656;2022-07-29T03:16:59;2.47;;;1.20;;
42810;SDS011;28457;55.680;37.656;2022-07-29T03:19:28;3.20;;;1.65;;
42810;SDS011;28457;55.680;37.656;2022-07-29T03:21:58;1.70;;;1.35;;
42810;SDS011;28457;55.680;37.656;2022-07-29T03:24:27;2.78;;;1.45;;
42810;SDS011;28457;55.680;37.656;2022-07-29T03:26:58;3.25;;;1.58;;
42810;SDS011;28457;55.680;37.656;2022-07-29T03:29:27;5.55;;;1.70;;
42810;SDS011;28457;55.680;37.656;2022-07-29T03:32:02;2.50;;;1.33;;
42810;SDS011;28457;55.680;37.656;2022-07-29T03:34:34;2.67;;;1.25;;
42810;SDS011;28457;55.680;37.656;2022-07-29T03:37:04;3.22;;;1.30;;
42810;SDS011;28457;55.680;37.656;2022-07-29T03:39:35;1.80;;;1.25;;
42810;SDS011;28457;55.680;37.656;2022-07-29T03:42:09;2.35;;;1.33;;
42810;SDS011;28457;55.680;37.656;2022-07-29T03:44:40;1.85;;;1.10;;
42810;SDS011;28457;55.680;37.656;2022-07-29T03:47:13;5.85;;;1.40;;
42810;SDS011;28457;55.680;37.656;2022-07-29T03:49:44;1.88;;;1.25;;
42810;SDS011;28457;55.680;37.656;2022-07-29T03:52:16;2.50;;;1.38;;
42810;SDS011;28457;55.680;37.656;2022-07-29T03:54:45;2.65;;;1.45;;
42810;SDS011;28457;55.680;37.656;2022-07-29T03:57:15;3.90;;;1.50;;
42810;SDS011;28457;55.680;37.656;2022-07-29T03:59:44;3.45;;;1.60;;
42810;SDS011;28457;55.680;37.656;2022-07-29T04:02:14;3.22;;;1.40;;
42810;SDS011;28457;55.680;37.656;2022-07-29T04:04:49;3.70;;;1.58;;
42810;SDS011;28457;55.680;37.656;2022-07-29T04:07:18;3.97;;;1.60;;
42810;SDS011;28457;55.680;37.656;2022-07-29T04:09:46;2.88;;;1.60;;
42810;SDS011;28457;55.680;37.656;2022-07-29T04:12:15;3.88;;;1.38;;
42810;SDS011;28457;55.680;37.656;2022-07-29T04:14:43;4.55;;;1.20;;
42810;SDS011;28457;55.680;37.656;2022-07-29T04:17:12;4.68;;;1.30;;
42810;SDS011;28457;55.680;37.656;2022-07-29T04:19:42;3.22;;;1.50;;
42810;SDS011;28457;55.680;37.656;2022-07-29T04:22:10;2.85;;;1.35;;
42810;SDS011;28457;55.680;37.656;2022-07-29T04:24:39;3.30;;;1.30;;
42810;SDS011;28457;55.680;37.656;2022-07-29T04:27:10;3.10;;;1.45;;
42810;SDS011;28457;55.680;37.656;2022-07-29T04:29:38;2.65;;;1.40;;
42810;SDS011;28457;55.680;37.656;2022-07-29T04:32:23;3.50;;;1.30;;
42810;SDS011;28457;55.680;37.656;2022-07-29T04:34:53;4.60;;;1.48;;
42810;SDS011;28457;55.680;37.656;2022-07-29T04:37:21;5.10;;;2.33;;
42810;SDS011;28457;55.680;37.656;2022-07-29T04:39:50;2.50;;;1.50;;
42810;SDS011;28457;55.680;37.656;2022-07-29T04:42:18;2.28;;;1.30;;
42810;SDS011;28457;55.680;37.656;2022-07-29T04:44:54;2.33;;;1.23;;
42810;SDS011;28457;55.680;37.656;2022-07-29T04:47:29;2.80;;;1.50;;
42810;SDS011;28457;55.680;37.656;2022-07-29T04:49:58;3.85;;;1.80;;
42810;SDS011;28457;55.680;37.656;2022-07-29T04:52:28;3.10;;;1.40;;
42810;SDS011;28457;55.680;37.656;2022-07-29T04:54:57;3.28;;;1.23;;
42810;SDS011;28457;55.680;37.656;2022-07-29T04:57:25;3.00;;;1.42;;
42810;SDS011;28457;55.680;37.656;2022-07-29T04:59:54;3.15;;;1.50;;
42810;SDS011;28457;55.680;37.656;2022-07-29T05:02:22;1.70;;;1.25;;
42810;SDS011;28457;55.680;37.656;2022-07-29T05:04:51;4.15;;;2.10;;
42810;SDS011;28457;55.680;37.656;2022-07-29T05:07:20;2.80;;;1.38;;
42810;SDS011;28457;55.680;37.656;2022-07-29T05:09:49;3.72;;;1.30;;
42810;SDS011;28457;55.680;37.656;2022-07-29T05:12:17;4.50;;;1.20;;
42810;SDS011;28457;55.680;37.656;2022-07-29T05:14:46;3.40;;;1.38;;
42810;SDS011;28457;55.680;37.656;2022-07-29T05:17:15;3.05;;;1.40;;
42810;SDS011;28457;55.680;37.656;2022-07-29T05:19:43;3.17;;;1.08;;
42810;SDS011;28457;55.680;37.656;2022-07-29T05:22:12;4.32;;;1.40;;
42810;SDS011;28457;55.680;37.656;2022-07-29T05:24:41;3.10;;;1.20;;
42810;SDS011;28457;55.680;37.656;2022-07-29T05:27:10;1.80;;;1.10;;
42810;SDS011;28457;55.680;37.656;2022-07-29T05:29:39;1.80;;;1.08;;
42810;SDS011;28457;55.680;37.656;2022-07-29T05:32:11;2.97;;;1.40;;
42810;SDS011;28457;55.680;37.656;2022-07-29T05:34:39;4.45;;;1.38;;
42810;SDS011;28457;55.680;37.656;2022-07-29T05:37:17;4.18;;;1.52;;
42810;SDS011;28457;55.680;37.656;2022-07-29T05:39:48;2.38;;;1.40;;
42810;SDS011;28457;55.680;37.656;2022-07-29T05:42:23;2.50;;;1.40;;
42810;SDS011;28457;55.680;37.656;2022-07-29T05:44:51;1.85;;;1.15;;
42810;SDS011;28457;55.680;37.656;2022-07-29T05:47:20;2.70;;;1.35;;
42810;SDS011;28457;55.680;37.656;2022-07-29T05:49:49;2.50;;;1.67;;
42810;SDS011;28457;55.680;37.656;2022-07-29T05:52:18;2.72;;;1.27;;
42810;SDS011;28457;55.680;37.656;2022-07-29T05:54:48;2.35;;;1.35;;
42810;SDS011;28457;55.680;37.656;2022-07-29T05:57:16;3.92;;;1.75;;
42810;SDS011;28457;55.680;37.656;2022-07-29T05:59:45;1.52;;;0.95;;
42810;SDS011;28457;55.680;37.656;2022-07-29T06:02:14;2.53;;;0.95;;
42810;SDS011;28457;55.680;37.656;2022-07-29T06:04:43;4.13;;;1.40;;
42810;SDS011;28457;55.680;37.656;2022-07-29T06:07:12;4.05;;;1.83;;
42810;SDS011;28457;55.680;37.656;2022-07-29T06:09:40;3.80;;;1.40;;
42810;SDS011;28457;55.680;37.656;2022-07-29T06:12:10;3.85;;;1.30;;
42810;SDS011;28457;55.680;37.656;2022-07-29T06:14:39;2.08;;;1.02;;
42810;SDS011;28457;55.680;37.656;2022-07-29T06:17:07;3.03;;;1.25;;
42810;SDS011;28457;55.680;37.656;2022-07-29T06:19:38;2.88;;;1.33;;
42810;SDS011;28457;55.680;37.656;2022-07-29T06:22:06;1.98;;;1.00;;
42810;SDS011;28457;55.680;37.656;2022-07-29T06:24:35;2.95;;;1.10;;
42810;SDS011;28457;55.680;37.656;2022-07-29T06:27:08;3.55;;;1.73;;
42810;SDS011;28457;55.680;37.656;2022-07-29T06:29:38;3.20;;;1.38;;
42810;SDS011;28457;55.680;37.656;2022-07-29T06:32:06;3.15;;;1.13;;
42810;SDS011;28457;55.680;37.656;2022-07-29T06:34:35;2.22;;;0.90;;
42810;SDS011;28457;55.680;37.656;2022-07-29T06:37:06;1.70;;;1.20;;
42810;SDS011;28457;55.680;37.656;2022-07-29T06:39:41;1.92;;;1.10;;
42810;SDS011;28457;55.680;37.656;2022-07-29T06:42:09;3.47;;;1.40;;
42810;SDS011;28457;55.680;37.656;2022-07-29T06:44:41;3.90;;;1.15;;
42810;SDS011;28457;55.680;37.656;2022-07-29T06:47:09;2.53;;;1.30;;
42810;SDS011;28457;55.680;37.656;2022-07-29T06:49:38;2.17;;;1.20;;
42810;SDS011;28457;55.680;37.656;2022-07-29T06:52:06;2.40;;;1.50;;
42810;SDS011;28457;55.680;37.656;2022-07-29T06:54:35;2.30;;;1.10;;
42810;SDS011;28457;55.680;37.656;2022-07-29T06:57:03;5.53;;;1.13;;
42810;SDS011;28457;55.680;37.656;2022-07-29T06:59:32;2.10;;;1.30;;
42810;SDS011;28457;55.680;37.656;2022-07-29T07:02:03;2.63;;;1.30;;
42810;SDS011;28457;55.680;37.656;2022-07-29T07:04:32;3.97;;;1.48;;
42810;SDS011;28457;55.680;37.656;2022-07-29T07:07:00;2.15;;;1.25;;
42810;SDS011;28457;55.680;37.656;2022-07-29T07:09:29;2.45;;;1.20;;
42810;SDS011;28457;55.680;37.656;2022-07-29T07:12:06;2.55;;;1.33;;
42810;SDS011;28457;55.680;37.656;2022-07-29T07:14:35;4.43;;;1.42;;
42810;SDS011;28457;55.680;37.656;2022-07-29T07:17:05;2.88;;;1.20;;
42810;SDS011;28457;55.680;37.656;2022-07-29T07:19:34;2.97;;;1.10;;
42810;SDS011;28457;55.680;37.656;2022-07-29T07:22:03;6.40;;;1.65;;
42810;SDS011;28457;55.680;37.656;2022-07-29T07:24:31;3.55;;;1.20;;
42810;SDS011;28457;55.680;37.656;2022-07-29T07:27:00;3.08;;;1.40;;
42810;SDS011;28457;55.680;37.656;2022-07-29T07:29:28;2.55;;;1.25;;
42810;SDS011;28457;55.680;37.656;2022-07-29T07:31:57;2.55;;;1.60;;
42810;SDS011;28457;55.680;37.656;2022-07-29T07:34:28;6.15;;;1.58;;
42810;SDS011;28457;55.680;37.656;2022-07-29T07:36:57;2.55;;;1.13;;
42810;SDS011;28457;55.680;37.656;2022-07-29T07:39:26;2.50;;;1.25;;
42810;SDS011;28457;55.680;37.656;2022-07-29T07:41:55;3.58;;;1.10;;
42810;SDS011;28457;55.680;37.656;2022-07-29T07:44:23;3.83;;;1.65;;
42810;SDS011;28457;55.680;37.656;2022-07-29T07:46:52;6.22;;;1.35;;
42810;SDS011;28457;55.680;37.656;2022-07-29T07:49:21;1.23;;;0.82;;
42810;SDS011;28457;55.680;37.656;2022-07-29T07:51:53;2.05;;;1.00;;
42810;SDS011;28457;55.680;37.656;2022-07-29T07:54:21;3.30;;;1.42;;
42810;SDS011;28457;55.680;37.656;2022-07-29T07:56:50;2.33;;;1.00;;
42810;SDS011;28457;55.680;37.656;2022-07-29T07:59:19;2.72;;;1.10;;
42810;SDS011;28457;55.680;37.656;2022-07-29T08:01:47;2.63;;;1.20;;
42810;SDS011;28457;55.680;37.656;2022-07-29T08:04:22;2.75;;;1.30;;
42810;SDS011;28457;55.680;37.656;2022-07-29T08:06:56;1.77;;;1.20;;
42810;SDS011;28457;55.680;37.656;2022-07-29T08:09:26;2.50;;;1.05;;
42810;SDS011;28457;55.680;37.656;2022-07-29T08:11:56;4.32;;;1.20;;
42810;SDS011;28457;55.680;37.656;2022-07-29T08:14:25;6.80;;;2.20;;
42810;SDS011;28457;55.680;37.656;2022-07-29T08:16:54;7.78;;;2.83;;
42810;SDS011;28457;55.680;37.656;2022-07-29T08:19:22;4.55;;;2.63;;
42810;SDS011;28457;55.680;37.656;2022-07-29T08:21:51;8.60;;;1.88;;
42810;SDS011;28457;55.680;37.656;2022-07-29T08:24:22;3.95;;;1.17;;
42810;SDS011;28457;55.680;37.656;2022-07-29T08:27:08;2.95;;;1.55;;
42810;SDS011;28457;55.680;37.656;2022-07-29T08:29:57;3.78;;;1.13;;
42810;SDS011;28457;55.680;37.656;2022-07-29T08:32:25;2.25;;;1.00;;
42810;SDS011;28457;55.680;37.656;2022-07-29T08:35:15;1.40;;;0.80;;
42810;SDS011;28457;55.680;37.656;2022-07-29T08:37:43;1.58;;;0.90;;
42810;SDS011;28457;55.680;37.656;2022-07-29T08:40:13;2.08;;;1.10;;
42810;SDS011;28457;55.680;37.656;2022-07-29T08:42:42;2.55;;;1.42;;
42810;SDS011;28457;55.680;37.656;2022-07-29T08:45:10;2.55;;;1.02;;
42810;SDS011;28457;55.680;37.656;2022-07-29T08:47:39;1.50;;;0.90;;
42810;SDS011;28457;55.680;37.656;2022-07-29T08:50:08;7.00;;;1.90;;
42810;SDS011;28457;55.680;37.656;2022-07-29T08:52:38;2.22;;;1.02;;
42810;SDS011;28457;55.680;37.656;2022-07-29T08:55:08;2.95;;;1.10;;
42810;SDS011;28457;55.680;37.656;2022-07-29T08:57:39;3.22;;;1.17;;
42810;SDS011;28457;55.680;37.656;2022-07-29T09:03:31;1.75;;;1.23;;
42810;SDS011;28457;55.680;37.656;2022-07-29T09:06:02;2.22;;;1.02;;
42810;SDS011;28457;55.680;37.656;2022-07-29T09:08:32;1.65;;;0.80;;
42810;SDS011;28457;55.680;37.656;2022-07-29T09:11:01;3.17;;;0.90;;
42810;SDS011;28457;55.680;37.656;2022-07-29T09:13:33;4.28;;;1.00;;
42810;SDS011;28457;55.680;37.656;2022-07-29T09:16:03;1.83;;;1.10;;
42810;SDS011;28457;55.680;37.656;2022-07-29T09:18:36;2.38;;;1.00;;
42810;SDS011;28457;55.680;37.656;2022-07-29T09:21:06;1.13;;;0.80;;
42810;SDS011;28457;55.680;37.656;2022-07-29T09:24:01;3.13;;;0.90;;
42810;SDS011;28457;55.680;37.656;2022-07-29T09:26:34;2.90;;;1.35;;
42810;SDS011;28457;55.680;37.656;2022-07-29T09:29:12;1.90;;;1.08;;
42810;SDS011;28457;55.680;37.656;2022-07-29T09:31:42;3.42;;;1.13;;
42810;SDS011;28457;55.680;37.656;2022-07-29T09:34:13;1.98;;;1.08;;
42810;SDS011;28457;55.680;37.656;2022-07-29T09:36:44;5.10;;;1.20;;
42810;SDS011;28457;55.680;37.656;2022-07-29T09:39:15;4.00;;;1.00;;
42810;SDS011;28457;55.680;37.656;2022-07-29T09:41:55;2.33;;;0.90;;
42810;SDS011;28457;55.680;37.656;2022-07-29T09:44:26;1.92;;;0.80;;
42810;SDS011;28457;55.680;37.656;2022-07-29T09:46:58;4.30;;;1.50;;
42810;SDS011;28457;55.680;37.656;2022-07-29T09:49:32;2.00;;;1.13;;
42810;SDS011;28457;55.680;37.656;2022-07-29T09:52:05;1.85;;;1.02;;
42810;SDS011;28457;55.680;37.656;2022-07-29T09:54:35;2.22;;;0.90;;
42810;SDS011;28457;55.680;37.656;2022-07-29T09:57:05;2.55;;;1.00;;
42810;SDS011;28457;55.680;37.656;2022-07-29T09:59:37;3.20;;;1.00;;
42810;SDS011;28457;55.680;37.656;2022-07-29T10:02:16;3.33;;;1.60;;
42810;SDS011;28457;55.680;37.656;2022-07-29T10:04:49;2.40;;;1.05;;
42810;SDS011;28457;55.680;37.656;2022-07-29T10:07:18;3.03;;;1.10;;
42810;SDS011;28457;55.680;37.656;2022-07-29T10:09:52;2.78;;;1.30;;
42810;SDS011;28457;55.680;37.656;2022-07-29T10:12:22;1.95;;;1.20;;
42810;SDS011;28457;55.680;37.656;2022-07-29T10:14:53;2.38;;;0.82;;
42810;SDS011;28457;55.680;37.656;2022-07-29T10:17:22;2.58;;;0.88;;
42810;SDS011;28457;55.680;37.656;2022-07-29T10:19:50;2.08;;;0.68;;
42810;SDS011;28457;55.680;37.656;2022-07-29T10:22:19;3.80;;;1.20;;
42810;SDS011;28457;55.680;37.656;2022-07-29T10:25:08;1.65;;;0.80;;
42810;SDS011;28457;55.680;37.656;2022-07-29T10:27:37;2.45;;;0.90;;
42810;SDS011;28457;55.680;37.656;2022-07-29T10:30:08;3.25;;;0.90;;
42810;SDS011;28457;55.680;37.656;2022-07-29T10:32:40;3.38;;;0.90;;
42810;SDS011;28457;55.680;37.656;2022-07-29T10:35:27;1.77;;;1.20;;
42810;SDS011;28457;55.680;37.656;2022-07-29T10:38:10;1.33;;;0.80;;
42810;SDS011;28457;55.680;37.656;2022-07-29T10:41:01;3.63;;;1.00;;
42810;SDS011;28457;55.680;37.656;2022-07-29T10:43:59;2.38;;;0.90;;
42810;SDS011;28457;55.680;37.656;2022-07-29T10:46:35;1.70;;;0.80;;
42810;SDS011;28457;55.680;37.656;2022-07-29T10:49:10;2.28;;;0.90;;
42810;SDS011;28457;55.680;37.656;2022-07-29T10:51:50;3.33;;;0.98;;
42810;SDS011;28457;55.680;37.656;2022-07-29T10:54:36;1.98;;;0.88;;
42810;SDS011;28457;55.680;37.656;2022-07-29T10:57:23;1.77;;;0.73;;
42810;SDS011;28457;55.680;37.656;2022-07-29T11:03:06;1.67;;;1.00;;
42810;SDS011;28457;55.680;37.656;2022-07-29T11:05:55;1.85;;;0.80;;
42810;SDS011;28457;55.680;37.656;2022-07-29T11:08:25;2.17;;;0.80;;
42810;SDS011;28457;55.680;37.656;2022-07-29T11:14:03;1.73;;;0.70;;
42810;SDS011;28457;55.680;37.656;2022-07-29T11:19:33;3.90;;;0.80;;
42810;SDS011;28457;55.680;37.656;2022-07-29T11:22:07;2.13;;;0.90;;
42810;SDS011;28457;55.680;37.656;2022-07-29T11:24:36;1.08;;;0.70;;
42810;SDS011;28457;55.680;37.656;2022-07-29T11:27:17;2.40;;;1.02;;
42810;SDS011;28457;55.680;37.656;2022-07-29T11:29:48;3.63;;;0.80;;
42810;SDS011;28457;55.680;37.656;2022-07-29T11:32:22;2.60;;;1.00;;
42810;SDS011;28457;55.680;37.656;2022-07-29T11:35:12;3.03;;;1.20;;
42810;SDS011;28457;55.680;37.656;2022-07-29T11:37:45;1.45;;;0.90;;
42810;SDS011;28457;55.680;37.656;2022-07-29T11:40:23;4.53;;;1.20;;
42810;SDS011;28457;55.680;37.656;2022-07-29T11:42:52;4.07;;;0.98;;
42810;SDS011;28457;55.680;37.656;2022-07-29T11:45:21;2.08;;;0.90;;
42810;SDS011;28457;55.680;37.656;2022-07-29T11:48:17;1.30;;;0.75;;
42810;SDS011;28457;55.680;37.656;2022-07-29T11:50:59;2.17;;;0.82;;
42810;SDS011;28457;55.680;37.656;2022-07-29T11:53:28;1.77;;;0.80;;
42810;SDS011;28457;55.680;37.656;2022-07-29T11:55:58;2.33;;;0.77;;
42810;SDS011;28457;55.680;37.656;2022-07-29T11:58:29;1.00;;;0.63;;
42810;SDS011;28457;55.680;37.656;2022-07-29T12:00:59;1.77;;;0.90;;
42810;SDS011;28457;55.680;37.656;2022-07-29T12:03:30;2.78;;;1.00;;
42810;SDS011;28457;55.680;37.656;2022-07-29T12:06:04;2.50;;;0.85;;
42810;SDS011;28457;55.680;37.656;2022-07-29T12:08:44;1.98;;;0.90;;
42810;SDS011;28457;55.680;37.656;2022-07-29T12:11:16;1.15;;;0.90;;
42810;SDS011;28457;55.680;37.656;2022-07-29T12:13:47;1.52;;;0.70;;
42810;SDS011;28457;55.680;37.656;2022-07-29T12:16:17;3.05;;;1.30;;
42810;SDS011;28457;55.680;37.656;2022-07-29T12:18:58;5.13;;;1.02;;
42810;SDS011;28457;55.680;37.656;2022-07-29T12:21:35;2.03;;;0.80;;
42810;SDS011;28457;55.680;37.656;2022-07-29T12:24:22;1.65;;;1.10;;
42810;SDS011;28457;55.680;37.656;2022-07-29T12:26:53;2.28;;;1.00;;
42810;SDS011;28457;55.680;37.656;2022-07-29T12:29:24;1.60;;;0.80;;
42810;SDS011;28457;55.680;37.656;2022-07-29T12:32:01;1.30;;;0.80;;
42810;SDS011;28457;55.680;37.656;2022-07-29T12:34:45;1.70;;;0.70;;
42810;SDS011;28457;55.680;37.656;2022-07-29T12:37:15;1.90;;;1.00;;
42810;SDS011;28457;55.680;37.656;2022-07-29T12:39:44;3.17;;;0.85;;
42810;SDS011;28457;55.680;37.656;2022-07-29T12:42:13;1.90;;;0.75;;
42810;SDS011;28457;55.680;37.656;2022-07-29T12:44:45;2.88;;;0.90;;
42810;SDS011;28457;55.680;37.656;2022-07-29T12:47:15;2.10;;;0.85;;
42810;SDS011;28457;55.680;37.656;2022-07-29T12:49:46;2.92;;;0.90;;
42810;SDS011;28457;55.680;37.656;2022-07-29T12:52:27;2.47;;;0.90;;
42810;SDS011;28457;55.680;37.656;2022-07-29T12:54:57;1.80;;;0.80;;
42810;SDS011;28457;55.680;37.656;2022-07-29T12:57:26;2.42;;;0.70;;
42810;SDS011;28457;55.680;37.656;2022-07-29T13:00:03;1.00;;;0.68;;
42810;SDS011;28457;55.680;37.656;2022-07-29T13:02:37;1.88;;;0.60;;
42810;SDS011;28457;55.680;37.656;2022-07-29T13:05:07;1.30;;;0.75;;
42810;SDS011;28457;55.680;37.656;2022-07-29T13:07:38;4.18;;;1.05;;
42810;SDS011;28457;55.680;37.656;2022-07-29T13:10:23;1.63;;;0.90;;
42810;SDS011;28457;55.680;37.656;2022-07-29T13:13:01;2.45;;;0.95;;
42810;SDS011;28457;55.680;37.656;2022-07-29T13:15:32;1.02;;;0.70;;
42810;SDS011;28457;55.680;37.656;2022-07-29T13:18:01;2.33;;;1.02;;
42810;SDS011;28457;55.680;37.656;2022-07-29T13:20:31;2.05;;;0.63;;
42810;SDS011;28457;55.680;37.656;2022-07-29T13:23:01;2.13;;;0.80;;
42810;SDS011;28457;55.680;37.656;2022-07-29T13:25:30;2.13;;;1.33;;
42810;SDS011;28457;55.680;37.656;2022-07-29T13:28:01;2.00;;;0.98;;
42810;SDS011;28457;55.680;37.656;2022-07-29T13:30:29;3.75;;;1.40;;
42810;SDS011;28457;55.680;37.656;2022-07-29T13:32:58;1.50;;;0.77;;
42810;SDS011;28457;55.680;37.656;2022-07-29T13:35:26;2.90;;;1.30;;
42810;SDS011;28457;55.680;37.656;2022-07-29T13:37:56;2.70;;;0.80;;
42810;SDS011;28457;55.680;37.656;2022-07-29T13:40:26;1.38;;;0.73;;
42810;SDS011;28457;55.680;37.656;2022-07-29T13:42:55;1.90;;;1.00;;
42810;SDS011;28457;55.680;37.656;2022-07-29T13:45:24;1.73;;;0.80;;
42810;SDS011;28457;55.680;37.656;2022-07-29T13:47:55;2.63;;;0.90;;
42810;SDS011;28457;55.680;37.656;2022-07-29T13:50:23;2.50;;;0.98;;
42810;SDS011;28457;55.680;37.656;2022-07-29T13:52:52;2.45;;;1.00;;
42810;SDS011;28457;55.680;37.656;2022-07-29T13:55:20;2.85;;;0.80;;
42810;SDS011;28457;55.680;37.656;2022-07-29T13:57:50;1.98;;;1.10;;
42810;SDS011;28457;55.680;37.656;2022-07-29T14:00:19;4.22;;;1.10;;
42810;SDS011;28457;55.680;37.656;2022-07-29T14:02:47;2.88;;;1.00;;
42810;SDS011;28457;55.680;37.656;2022-07-29T14:05:16;3.92;;;1.00;;
42810;SDS011;28457;55.680;37.656;2022-07-29T14:07:44;1.42;;;0.90;;
42810;SDS011;28457;55.680;37.656;2022-07-29T14:10:13;2.22;;;1.05;;
42810;SDS011;28457;55.680;37.656;2022-07-29T14:12:45;3.50;;;1.50;;
42810;SDS011;28457;55.680;37.656;2022-07-29T14:15:15;1.10;;;0.70;;
42810;SDS011;28457;55.680;37.656;2022-07-29T14:17:44;2.25;;;0.80;;
42810;SDS011;28457;55.680;37.656;2022-07-29T14:20:12;1.88;;;0.80;;
42810;SDS011;28457;55.680;37.656;2022-07-29T14:22:42;1.65;;;0.90;;
42810;SDS011;28457;55.680;37.656;2022-07-29T14:25:11;2.55;;;0.88;;
42810;SDS011;28457;55.680;37.656;2022-07-29T14:27:41;1.63;;;0.63;;
42810;SDS011;28457;55.680;37.656;2022-07-29T14:30:12;1.10;;;0.80;;
42810;SDS011;28457;55.680;37.656;2022-07-29T14:32:44;2.85;;;0.98;;
42810;SDS011;28457;55.680;37.656;2022-07-29T14:35:14;2.95;;;1.13;;
42810;SDS011;28457;55.680;37.656;2022-07-29T14:37:43;1.80;;;1.10;;
42810;SDS011;28457;55.680;37.656;2022-07-29T14:40:13;1.73;;;0.80;;
42810;SDS011;28457;55.680;37.656;2022-07-29T14:42:42;2.30;;;1.00;;
42810;SDS011;28457;55.680;37.656;2022-07-29T14:45:12;2.05;;;0.95;;
42810;SDS011;28457;55.680;37.656;2022-07-29T14:47:40;1.77;;;0.80;;
42810;SDS011;28457;55.680;37.656;2022-07-29T14:50:10;3.47;;;1.00;;
42810;SDS011;28457;55.680;37.656;2022-07-29T14:52:40;1.50;;;0.80;;
42810;SDS011;28457;55.680;37.656;2022-07-29T14:55:10;3.90;;;1.23;;
42810;SDS011;28457;55.680;37.656;2022-07-29T14:57:46;2.00;;;0.98;;
42810;SDS011;28457;55.680;37.656;2022-07-29T15:00:16;1.60;;;0.90;;
42810;SDS011;28457;55.680;37.656;2022-07-29T15:02:46;1.83;;;0.90;;
42810;SDS011;28457;55.680;37.656;2022-07-29T15:05:31;2.00;;;0.90;;
42810;SDS011;28457;55.680;37.656;2022-07-29T15:08:02;1.33;;;0.80;;
42810;SDS011;28457;55.680;37.656;2022-07-29T15:10:32;2.67;;;0.95;;
42810;SDS011;28457;55.680;37.656;2022-07-29T15:13:01;1.80;;;0.90;;
42810;SDS011;28457;55.680;37.656;2022-07-29T15:15:31;1.60;;;1.13;;
42810;SDS011;28457;55.680;37.656;2022-07-29T15:18:00;6.63;;;1.20;;